Time;durP1;ratioP1;P1;durP2;ratioP2;P2;SDS_P1;SDS_P2;PMS_P1;PMS_P2;Temp;Humidity;BMP_temperature;BMP_pressure;BME280_temperature;BME280_humidity;BME280_pressure;Samples;Min_cycle;Max_cycle;Signal;HPM_P1;HPM_P2
2021/07/26 00:09:16;;;;;;;3.33;1.55;;;17.80;99.90;;;;;;20850526;28;20145;-49
2021/07/26 00:19:17;;;;;;;3.95;1.95;;;17.80;99.90;;;;;;20856688;28;20039;-49
2021/07/26 00:29:18;;;;;;;3.63;2.05;;;17.80;99.90;;;;;;20858330;28;20410;-49
2021/07/26 00:39:23;;;;;;;5.60;2.10;;;17.70;99.90;;;;;;20856004;28;20052;-49
2021/07/26 00:49:26;;;;;;;3.70;1.70;;;17.80;99.90;;;;;;20854666;28;20547;-50
2021/07/26 00:59:27;;;;;;;4.18;1.70;;;17.60;99.90;;;;;;20854750;28;20045;-49
2021/07/26 01:09:28;;;;;;;5.75;2.67;;;17.60;99.90;;;;;;20851715;28;20412;-49
2021/07/26 01:19:30;;;;;;;5.57;2.65;;;17.40;99.90;;;;;;20854893;28;20142;-49
2021/07/26 01:29:31;;;;;;;4.47;1.95;;;17.40;99.90;;;;;;20850681;28;20386;-50
2021/07/26 01:39:32;;;;;;;4.28;2.30;;;17.30;99.90;;;;;;20851620;28;22074;-49
2021/07/26 01:49:42;;;;;;;3.95;1.70;;;17.30;99.90;;;;;;20850276;28;20049;-50
2021/07/26 01:59:43;;;;;;;5.37;2.53;;;17.20;99.90;;;;;;20848472;28;20407;-49
2021/07/26 02:09:44;;;;;;;4.28;1.95;;;17.30;99.90;;;;;;20842252;28;20468;-49
2021/07/26 02:19:45;;;;;;;4.15;2.45;;;17.20;99.90;;;;;;20849535;28;20053;-49
2021/07/26 02:29:46;;;;;;;5.35;2.58;;;17.20;99.90;;;;;;20842582;28;20834;-49
2021/07/26 02:39:48;;;;;;;4.35;2.22;;;17.20;99.90;;;;;;20846173;28;20142;-50
2021/07/26 02:49:49;;;;;;;4.03;1.50;;;17.20;99.90;;;;;;20848127;28;20419;-49
2021/07/26 02:59:50;;;;;;;3.97;1.95;;;17.10;99.90;;;;;;20843703;28;20523;-49
2021/07/26 03:09:52;;;;;;;4.93;2.22;;;17.00;99.90;;;;;;20840020;28;20492;-49
2021/07/26 03:19:56;;;;;;;6.80;2.80;;;17.10;99.90;;;;;;20845062;28;20041;-49
2021/07/26 03:29:57;;;;;;;5.20;2.67;;;17.00;99.90;;;;;;20827620;28;20507;-49
2021/07/26 03:39:58;;;;;;;4.43;2.22;;;17.10;99.90;;;;;;20843508;28;20757;-49
2021/07/26 03:50:00;;;;;;;4.95;2.25;;;17.30;99.90;;;;;;20856496;28;20719;-49
2021/07/26 04:00:01;;;;;;;5.30;2.50;;;17.30;99.90;;;;;;20859326;28;20385;-49
2021/07/26 04:10:06;;;;;;;6.57;3.35;;;17.10;99.90;;;;;;20854119;28;20076;-50
2021/07/26 04:20:08;;;;;;;4.82;2.53;;;17.10;99.90;;;;;;20837298;28;20404;-50
2021/07/26 04:30:09;;;;;;;5.03;2.15;;;17.20;99.90;;;;;;20855166;28;20518;-49
2021/07/26 04:40:11;;;;;;;5.28;2.55;;;17.20;99.90;;;;;;20848617;28;23030;-49
2021/07/26 04:50:13;;;;;;;5.65;2.45;;;17.30;99.90;;;;;;20855184;28;20428;-49
2021/07/26 05:00:14;;;;;;;5.88;2.80;;;17.50;99.90;;;;;;20851323;28;20428;-49
2021/07/26 05:10:16;;;;;;;6.05;3.40;;;17.80;99.90;;;;;;20851588;28;20657;-49
2021/07/26 05:20:17;;;;;;;5.78;2.78;;;18.30;99.90;;;;;;20846729;28;20045;-49
2021/07/26 05:30:18;;;;;;;6.80;2.92;;;18.60;99.90;;;;;;20851273;28;20548;-49
2021/07/26 05:40:20;;;;;;;6.78;2.78;;;18.70;99.90;;;;;;20837549;28;20577;-49
2021/07/26 05:50:21;;;;;;;5.88;2.65;;;18.60;99.90;;;;;;20850626;28;20419;-49
2021/07/26 06:00:35;;;;;;;5.45;2.58;;;18.80;99.90;;;;;;20850301;28;20421;-49
2021/07/26 06:10:36;;;;;;;6.93;2.95;;;19.40;99.90;;;;;;20820037;28;20427;-49
2021/07/26 06:20:38;;;;;;;5.97;2.50;;;19.40;99.90;;;;;;20851279;28;20674;-49
2021/07/26 06:30:39;;;;;;;5.38;2.17;;;19.50;99.90;;;;;;20863777;28;20056;-49
2021/07/26 06:40:43;;;;;;;5.55;3.25;;;19.70;99.90;;;;;;20862687;28;20440;-49
2021/07/26 06:50:44;;;;;;;8.65;2.45;;;19.90;99.90;;;;;;20850141;28;20496;-49
2021/07/26 07:00:45;;;;;;;6.05;3.50;;;19.80;99.90;;;;;;20833773;28;20602;-49
2021/07/26 07:10:47;;;;;;;8.10;3.90;;;20.00;99.90;;;;;;20747977;28;20037;-49
2021/07/26 07:20:48;;;;;;;10.55;4.95;;;20.20;99.90;;;;;;20845945;28;20488;-49
2021/07/26 07:30:49;;;;;;;10.65;4.70;;;20.00;99.90;;;;;;20841314;28;20608;-49
2021/07/26 07:40:53;;;;;;;13.63;5.47;;;19.90;99.90;;;;;;20807101;28;20053;-50
2021/07/26 07:50:55;;;;;;;9.77;4.50;;;19.90;99.90;;;;;;20837975;28;20542;-50
2021/07/26 08:00:57;;;;;;;7.65;4.13;;;20.20;99.90;;;;;;20850009;28;20526;-49
2021/07/26 08:10:58;;;;;;;7.35;3.95;;;20.30;99.90;;;;;;20850922;28;20422;-50
2021/07/26 08:21:00;;;;;;;10.35;4.63;;;20.50;99.90;;;;;;20853598;28;20647;-49
2021/07/26 08:31:02;;;;;;;13.05;5.82;;;20.90;99.90;;;;;;20854028;28;20749;-49
2021/07/26 08:41:03;;;;;;;10.38;4.90;;;21.00;99.90;;;;;;20842806;28;20531;-49
2021/07/26 08:51:06;;;;;;;12.65;5.40;;;20.70;99.90;;;;;;20844261;28;20496;-49
2021/07/26 09:01:08;;;;;;;14.55;5.97;;;20.70;99.90;;;;;;20845999;28;20590;-49
2021/07/26 09:11:09;;;;;;;17.17;7.57;;;21.10;99.90;;;;;;20798208;28;20485;-49
2021/07/26 09:21:10;;;;;;;12.88;5.15;;;21.00;99.90;;;;;;20838476;28;20526;-50
2021/07/26 09:31:12;;;;;;;10.75;4.57;;;21.10;99.90;;;;;;20843438;28;20515;-49
2021/07/26 09:41:13;;;;;;;5.60;2.95;;;21.30;99.90;;;;;;20859016;28;20171;-50
2021/07/26 09:51:17;;;;;;;5.40;2.30;;;21.40;99.90;;;;;;20856486;28;20613;-49
2021/07/26 10:01:18;;;;;;;5.30;2.28;;;21.80;99.90;;;;;;20854342;28;20538;-49
2021/07/26 10:11:20;;;;;;;8.27;2.15;;;22.10;99.90;;;;;;20845626;28;20542;-49
2021/07/26 10:21:26;;;;;;;5.63;2.30;;;22.40;99.90;;;;;;20796521;28;20040;-50
2021/07/26 10:31:27;;;;;;;4.70;2.20;;;22.40;99.90;;;;;;20864357;28;20044;-50
2021/07/26 10:41:44;;;;;;;3.15;1.48;;;23.00;99.90;;;;;;20869659;28;20056;-50
2021/07/26 10:51:51;;;;;;;3.60;1.85;;;23.70;99.90;;;;;;20856910;28;20562;-49
2021/07/26 11:02:03;;;;;;;2.92;1.48;;;24.40;99.90;;;;;;20859079;28;20057;-49
2021/07/26 11:12:05;;;;;;;3.67;1.63;;;24.60;99.90;;;;;;20864242;28;20964;-49
2021/07/26 11:22:15;;;;;;;3.05;1.38;;;24.30;99.90;;;;;;20861581;28;20041;-49
2021/07/26 11:32:21;;;;;;;2.97;1.27;;;25.20;99.90;;;;;;20862093;28;20045;-49
2021/07/26 11:42:28;;;;;;;2.35;1.08;;;25.10;99.90;;;;;;20872819;28;20055;-49
2021/07/26 11:52:30;;;;;;;2.38;1.23;;;24.70;99.90;;;;;;20862392;28;20061;-50
2021/07/26 12:02:40;;;;;;;2.92;1.23;;;23.90;99.90;;;;;;20860432;28;20493;-49
2021/07/26 12:12:45;;;;;;;2.15;1.08;;;24.90;99.90;;;;;;20851826;28;20051;-49
2021/07/26 12:22:47;;;;;;;1.83;0.90;;;25.40;99.90;;;;;;20869981;28;20124;-49
2021/07/26 12:32:49;;;;;;;2.30;1.05;;;24.10;99.90;;;;;;20856028;28;20562;-49
2021/07/26 12:43:18;;;;;;;3.58;1.20;;;24.90;99.90;;;;;;20849394;28;20571;-49
2021/07/26 12:53:20;;;;;;;3.72;1.90;;;24.60;99.90;;;;;;20852467;28;20230;-49
2021/07/26 13:03:21;;;;;;;4.57;2.03;;;24.00;99.90;;;;;;20847980;28;20045;-49
2021/07/26 13:13:23;;;;;;;2.30;1.33;;;24.80;99.90;;;;;;20846222;28;20041;-49
2021/07/26 13:23:24;;;;;;;2.58;1.20;;;24.20;99.90;;;;;;20837545;28;20037;-49
2021/07/26 13:33:25;;;;;;;4.45;1.92;;;24.40;99.90;;;;;;20833902;28;20091;-49
2021/07/26 13:43:26;;;;;;;4.70;2.20;;;24.60;99.90;;;;;;20836676;28;20044;-49
2021/07/26 13:53:28;;;;;;;6.47;3.03;;;23.50;99.90;;;;;;20838588;28;20167;-49
2021/07/26 14:03:29;;;;;;;6.50;3.50;;;22.40;99.90;;;;;;20843532;28;20040;-50
2021/07/26 14:13:31;;;;;;;9.98;4.72;;;21.10;99.90;;;;;;20842548;28;20055;-49
2021/07/26 14:23:32;;;;;;;8.48;3.80;;;20.90;99.90;;;;;;20840579;28;20263;-49
2021/07/26 14:33:34;;;;;;;12.77;4.97;;;21.10;99.90;;;;;;20843640;28;20132;-50
2021/07/26 14:43:35;;;;;;;11.07;5.07;;;20.90;99.90;;;;;;20840023;28;20167;-50
2021/07/26 14:53:36;;;;;;;7.53;3.28;;;20.80;99.90;;;;;;20849995;28;20110;-50
2021/07/26 15:03:37;;;;;;;8.05;3.30;;;21.00;99.90;;;;;;20849159;28;20037;-50
2021/07/26 15:13:39;;;;;;;7.88;3.95;;;21.30;99.90;;;;;;20842249;28;20072;-49
2021/07/26 15:23:40;;;;;;;8.93;3.70;;;21.30;99.90;;;;;;20837616;28;20645;-49
2021/07/26 15:33:42;;;;;;;7.47;3.83;;;20.90;99.90;;;;;;20844163;28;20045;-50
2021/07/26 15:43:43;;;;;;;6.57;2.92;;;20.70;99.90;;;;;;20846877;28;20040;-48
2021/07/26 15:53:44;;;;;;;6.82;2.60;;;20.30;99.90;;;;;;20852177;28;20045;-49
2021/07/26 16:03:45;;;;;;;6.80;2.85;;;20.00;99.90;;;;;;20857130;28;20327;-48
2021/07/26 16:13:47;;;;;;;9.75;4.68;;;19.80;99.90;;;;;;20862329;28;20029;-50
2021/07/26 16:23:48;;;;;;;7.53;4.13;;;19.70;99.90;;;;;;20863143;28;20210;-49
2021/07/26 16:33:49;;;;;;;13.10;5.93;;;19.50;99.90;;;;;;20827585;28;20086;-49
2021/07/26 16:43:50;;;;;;;10.48;5.60;;;19.60;99.90;;;;;;20848018;28;20049;-48
2021/07/26 16:53:52;;;;;;;13.25;6.93;;;19.50;99.90;;;;;;20856139;28;20127;-48
2021/07/26 17:03:53;;;;;;;11.55;5.90;;;19.50;99.90;;;;;;20867072;28;20254;-49
2021/07/26 17:13:55;;;;;;;14.23;6.70;;;19.60;99.90;;;;;;20864573;28;20049;-49
2021/07/26 17:23:57;;;;;;;12.18;5.57;;;19.70;99.90;;;;;;20863094;28;20183;-49
2021/07/26 17:33:58;;;;;;;15.45;5.93;;;19.50;99.90;;;;;;20871309;28;20457;-49
2021/07/26 17:43:59;;;;;;;11.80;5.00;;;19.50;99.90;;;;;;20865304;28;20047;-49
2021/07/26 17:54:01;;;;;;;11.93;5.28;;;19.60;99.90;;;;;;20792511;28;20123;-49
2021/07/26 18:04:02;;;;;;;13.52;5.70;;;19.50;99.90;;;;;;20814424;28;20075;-49
2021/07/26 18:14:03;;;;;;;18.05;6.35;;;19.40;99.90;;;;;;20841445;28;20114;-49
2021/07/26 18:24:05;;;;;;;15.98;6.03;;;19.60;99.90;;;;;;20848085;28;20048;-49
2021/07/26 18:34:06;;;;;;;15.30;5.93;;;19.60;99.90;;;;;;20857901;28;20069;-49
2021/07/26 18:44:07;;;;;;;15.10;7.28;;;19.50;99.90;;;;;;20861180;28;20116;-49
2021/07/26 18:54:09;;;;;;;16.88;7.38;;;19.40;99.90;;;;;;20838007;28;20080;-49
2021/07/26 19:04:10;;;;;;;9.93;3.65;;;19.50;99.90;;;;;;20841685;28;20047;-49
2021/07/26 19:14:11;;;;;;;5.57;2.65;;;19.40;99.90;;;;;;20848139;28;20128;-49
2021/07/26 19:24:12;;;;;;;11.60;3.70;;;18.70;99.90;;;;;;20869715;28;20045;-49
2021/07/26 19:34:14;;;;;;;4.65;2.03;;;18.60;99.90;;;;;;20868269;28;20049;-48
2021/07/26 19:44:16;;;;;;;5.13;2.63;;;18.40;99.90;;;;;;20859831;28;20048;-48
2021/07/26 19:54:18;;;;;;;6.05;2.55;;;18.20;99.90;;;;;;20857733;28;20045;-49
2021/07/26 20:04:19;;;;;;;9.75;4.25;;;18.30;99.90;;;;;;20868010;28;20047;-49
2021/07/26 20:14:20;;;;;;;12.07;4.38;;;18.30;99.90;;;;;;20855314;28;20144;-49
2021/07/26 20:24:21;;;;;;;18.30;5.85;;;18.40;99.90;;;;;;20863069;28;20056;-49
2021/07/26 20:34:22;;;;;;;16.35;5.10;;;18.50;99.90;;;;;;20849473;28;20342;-49
2021/07/26 20:44:23;;;;;;;21.50;6.20;;;18.50;99.90;;;;;;20849620;28;20044;-49
2021/07/26 20:54:24;;;;;;;12.32;5.07;;;18.50;99.90;;;;;;20852634;28;20037;-49
2021/07/26 21:04:25;;;;;;;12.65;5.18;;;18.50;99.90;;;;;;20844151;28;20128;-49
2021/07/26 21:14:29;;;;;;;17.95;8.15;;;18.50;99.90;;;;;;20846715;28;20053;-49
2021/07/26 21:24:30;;;;;;;21.88;7.18;;;18.70;99.90;;;;;;20850911;28;20251;-49
2021/07/26 21:34:31;;;;;;;16.33;6.32;;;18.70;99.90;;;;;;20848488;28;20126;-49
2021/07/26 21:44:33;;;;;;;25.05;7.57;;;18.50;99.90;;;;;;20849824;28;20048;-49
2021/07/26 21:54:34;;;;;;;15.88;6.50;;;18.70;99.90;;;;;;20830356;28;20049;-49
2021/07/26 22:04:35;;;;;;;19.08;8.05;;;18.50;99.90;;;;;;20854110;28;20199;-49
2021/07/26 22:14:39;;;;;;;26.15;7.60;;;18.50;99.90;;;;;;20849706;28;20151;-49
2021/07/26 22:24:40;;;;;;;20.08;7.45;;;18.50;99.90;;;;;;20851625;28;20048;-49
2021/07/26 22:34:41;;;;;;;21.45;8.93;;;18.40;99.90;;;;;;20849776;28;20036;-50
2021/07/26 22:44:42;;;;;;;17.08;6.45;;;18.40;99.90;;;;;;20848775;28;20200;-50
2021/07/26 22:54:43;;;;;;;24.33;9.00;;;18.20;99.90;;;;;;20845047;28;20053;-49
2021/07/26 23:04:44;;;;;;;26.08;8.48;;;18.20;99.90;;;;;;20849113;28;20045;-49
2021/07/26 23:14:50;;;;;;;29.90;10.00;;;18.10;99.90;;;;;;20848316;28;20072;-49
2021/07/26 23:24:55;;;;;;;34.10;11.50;;;18.00;99.90;;;;;;20845751;28;20045;-49
2021/07/26 23:34:57;;;;;;;26.73;9.88;;;17.90;99.90;;;;;;20844769;28;20053;-49
2021/07/26 23:44:58;;;;;;;26.70;9.32;;;17.70;99.90;;;;;;20846041;28;20044;-49
2021/07/26 23:54:59;;;;;;;30.85;9.80;;;17.60;99.90;;;;;;20846946;28;20045;-49
